Beaverdale Heights, Iowa
Current Conditions -  °F | °C
As of 1:53 PM on Sunday 23 Nov 2014 (Local Time) from KBRL Reporting Station
Light Rain Light Rain  
Wind Chill: 52°   Ceiling: 400
Heat Index: 52°   Visibility: 1.5mi
Dew Point: 51°   Wind: 9mph
Humidity: 97%   Direction: 170°S
Pressure: 29.38"   Gusts: NA
Location:  40.8198°N, 91.2162°W
Report Text: KBRL 231953Z AUTO 17008KT 1 1/2SM -RA BR OVC004 11/11 A2938 RMK AO2 SLP949 P0006 T01110106 $
Loading
Personal Weather Stations






























Interactive Weather Map New forecast layout! Learn more

10-Day Weather Forecast

Advertisements
Track Severe Weather on mobile